Time;durP1;ratioP1;P1;durP2;ratioP2;P2;SDS_P1;SDS_P2;PMS_P1;PMS_P2;Temp;Humidity;BMP_temperature;BMP_pressure;BME280_temperature;BME280_humidity;BME280_pressure;Samples;Min_cycle;Max_cycle;Signal;HPM_P1;HPM_P2
2022/02/10 00:03:57;;;;;;;10.38;6.85;;;3.90;99.90;;;;;;4873950;29;20028;-78
2022/02/10 00:19:51;;;;;;;9.85;6.35;;;3.80;99.90;;;;;;4939274;29;20047;-75
2022/02/10 00:36:11;;;;;;;8.70;6.82;;;3.60;99.90;;;;;;4939183;29;20039;-73
2022/02/10 00:38:42;;;;;;;8.45;6.72;;;3.70;99.90;;;;;;4933842;29;20030;-75
2022/02/10 00:41:07;;;;;;;11.50;6.38;;;3.70;99.90;;;;;;4931073;29;20039;-75
2022/02/10 00:43:33;;;;;;;8.30;6.30;;;3.60;99.90;;;;;;4933269;29;20028;-74
2022/02/10 00:45:59;;;;;;;17.23;6.95;;;3.50;99.90;;;;;;4925166;29;20485;-75
2022/02/10 00:48:24;;;;;;;14.10;6.47;;;3.50;99.90;;;;;;4930627;29;20115;-74
2022/02/10 00:50:51;;;;;;;8.23;6.82;;;3.40;99.90;;;;;;4936146;29;20082;-76
2022/02/10 00:53:22;;;;;;;8.80;6.32;;;3.40;99.90;;;;;;4942766;29;20090;-76
2022/02/10 00:55:48;;;;;;;9.45;7.03;;;3.40;99.90;;;;;;4934404;29;20040;-76
2022/02/10 00:58:31;;;;;;;12.20;6.75;;;3.40;99.90;;;;;;4935082;29;20028;-76
2022/02/10 01:30:21;;;;;;;13.23;9.45;;;3.40;99.90;;;;;;4931006;29;20094;-76
2022/02/10 01:32:50;;;;;;;14.57;9.57;;;3.40;99.90;;;;;;4934107;29;20489;-74
2022/02/10 01:35:21;;;;;;;10.20;8.18;;;3.30;99.90;;;;;;4935394;29;20189;-77
2022/02/10 01:37:47;;;;;;;9.38;8.13;;;3.30;99.90;;;;;;4938742;29;20102;-76
2022/02/10 01:41:16;;;;;;;11.77;7.50;;;3.20;99.90;;;;;;4936827;29;20063;-75
2022/02/10 02:04:44;;;;;;;14.23;8.48;;;3.10;99.90;;;;;;4936661;29;20047;-76
2022/02/10 02:07:10;;;;;;;14.30;7.35;;;3.10;99.90;;;;;;4931543;29;20062;-76
2022/02/10 02:09:36;;;;;;;11.45;6.72;;;3.00;99.90;;;;;;4936342;29;20043;-77
2022/02/10 02:12:06;;;;;;;12.27;6.97;;;3.00;99.90;;;;;;4936670;29;20032;-77
2022/02/10 02:14:32;;;;;;;7.28;6.55;;;3.00;99.90;;;;;;4936579;29;20078;-76
2022/02/10 02:17:02;;;;;;;17.98;7.95;;;3.10;99.90;;;;;;4937643;29;20035;-76
2022/02/10 02:19:28;;;;;;;14.25;7.22;;;3.10;99.90;;;;;;4937316;29;20238;-76
2022/02/10 02:22:02;;;;;;;16.83;7.50;;;3.10;99.90;;;;;;4935563;29;20059;-76
2022/02/10 02:24:28;;;;;;;12.52;7.70;;;3.00;99.90;;;;;;4937494;29;20488;-76
2022/02/10 02:26:57;;;;;;;12.25;7.07;;;3.00;99.90;;;;;;4936786;29;20074;-76
2022/02/10 02:30:08;;;;;;;10.88;6.25;;;2.90;99.90;;;;;;4936248;29;20027;-75
2022/02/10 02:32:23;;;;;;;9.35;6.22;;;2.90;99.90;;;;;;4932904;29;20059;-76
2022/02/10 03:07:09;;;;;;;12.63;7.32;;;2.70;99.90;;;;;;4939583;29;20487;-76
2022/02/10 03:09:41;;;;;;;11.25;7.15;;;2.70;99.90;;;;;;4936397;29;20067;-76
2022/02/10 03:12:08;;;;;;;8.02;6.68;;;2.70;99.90;;;;;;4934810;29;20354;-76
2022/02/10 03:14:38;;;;;;;9.57;7.35;;;2.70;99.90;;;;;;4934947;29;20040;-75
2022/02/10 03:19:55;;;;;;;11.98;7.93;;;2.60;99.90;;;;;;4936400;29;20063;-76
2022/02/10 03:22:40;;;;;;;8.82;7.35;;;2.60;99.90;;;;;;4935057;29;20024;-75
2022/02/10 04:00:02;;;;;;;11.48;7.90;;;2.50;99.90;;;;;;4936350;29;20034;-76
2022/02/10 04:04:25;;;;;;;10.50;7.63;;;2.40;99.90;;;;;;4934742;29;20035;-75
2022/02/10 04:07:30;;;;;;;13.07;7.30;;;2.40;99.90;;;;;;4930088;29;20032;-76
2022/02/10 04:12:49;;;;;;;9.88;7.93;;;2.40;99.90;;;;;;4935129;29;20032;-75
2022/02/10 04:28:33;;;;;;;13.00;7.72;;;2.30;99.90;;;;;;4935778;29;20032;-76
2022/02/10 04:31:30;;;;;;;10.82;6.93;;;2.30;99.90;;;;;;4932422;29;20055;-76
2022/02/10 04:55:52;;;;;;;7.13;6.40;;;2.20;99.90;;;;;;4935082;29;20054;-77
2022/02/10 05:06:54;;;;;;;14.60;6.60;;;2.20;99.90;;;;;;4927955;29;20027;-76
2022/02/10 05:38:42;;;;;;;11.60;6.18;;;2.60;99.90;;;;;;4934325;29;20031;-77
2022/02/10 05:43:26;;;;;;;8.48;5.82;;;2.60;99.90;;;;;;4936012;29;20370;-75
2022/02/10 05:46:12;;;;;;;8.98;6.10;;;2.70;99.90;;;;;;4933006;29;20032;-76
2022/02/10 05:59:46;;;;;;;10.90;6.15;;;2.70;99.90;;;;;;4933238;29;20499;-77
2022/02/10 06:53:35;;;;;;;10.25;6.05;;;2.70;99.90;;;;;;4953620;29;20031;-76
2022/02/10 07:09:40;;;;;;;10.30;6.70;;;2.70;99.90;;;;;;4965259;29;20028;-74
2022/02/10 07:43:18;;;;;;;11.02;7.18;;;2.90;99.90;;;;;;4953086;29;20042;-76
2022/02/10 07:48:57;;;;;;;14.80;5.78;;;4.00;99.90;;;;;;4897708;29;20698;-77
2022/02/10 07:56:33;;;;;;;15.35;4.60;;;4.70;99.90;;;;;;4934092;29;20036;-77
2022/02/10 07:59:15;;;;;;;11.57;5.53;;;4.90;99.90;;;;;;4934470;29;20055;-77
2022/02/10 08:04:49;;;;;;;7.13;3.70;;;5.10;99.90;;;;;;4932156;29;20032;-77
2022/02/10 08:27:53;;;;;;;7.38;3.65;;;7.10;99.90;;;;;;4936675;29;20094;-79
2022/02/10 08:55:04;;;;;;;5.90;3.17;;;8.50;99.90;;;;;;4939533;29;20582;-81
2022/02/10 08:57:12;;;;;;;4.50;3.13;;;8.60;99.90;;;;;;4937241;29;20445;-83
2022/02/10 09:02:41;;;;;;;9.10;2.90;;;8.80;99.90;;;;;;4939646;29;20130;-82
2022/02/10 09:05:24;;;;;;;6.85;2.53;;;8.90;99.90;;;;;;4940622;29;20189;-83
2022/02/10 09:13:37;;;;;;;8.30;2.40;;;9.40;99.90;;;;;;4941021;29;20042;-82
2022/02/10 09:16:46;;;;;;;10.60;3.42;;;9.60;99.90;;;;;;4939042;29;20552;-82
2022/02/10 09:47:38;;;;;;;6.32;3.17;;;10.40;99.90;;;;;;4939636;29;20038;-82
2022/02/10 09:57:44;;;;;;;4.70;3.00;;;11.30;99.90;;;;;;4942472;29;20035;-78
2022/02/10 10:00:24;;;;;;;5.18;2.88;;;11.30;99.90;;;;;;4941825;29;20174;-81
2022/02/10 10:03:07;;;;;;;3.90;2.60;;;11.10;99.90;;;;;;4944268;29;20124;-81
2022/02/10 10:05:40;;;;;;;7.68;3.25;;;11.00;99.90;;;;;;4943212;29;20055;-81
2022/02/10 10:08:59;;;;;;;7.05;3.00;;;11.00;99.90;;;;;;4944366;29;20038;-83
2022/02/10 10:14:22;;;;;;;8.07;3.30;;;10.80;99.90;;;;;;4938284;29;20087;-77
2022/02/10 10:53:41;;;;;;;4.38;2.90;;;11.70;99.90;;;;;;4954401;29;20035;-82
2022/02/10 10:56:19;;;;;;;9.65;2.97;;;11.70;99.90;;;;;;4954998;29;20172;-83
2022/02/10 10:59:12;;;;;;;8.07;3.17;;;11.60;99.90;;;;;;4955320;29;20016;-83
2022/02/10 11:05:49;;;;;;;7.60;3.72;;;11.50;99.90;;;;;;4941981;29;20337;-82
2022/02/10 11:38:42;;;;;;;5.28;2.83;;;11.30;99.90;;;;;;4936229;29;20086;-83
2022/02/10 11:41:13;;;;;;;5.78;3.63;;;11.20;99.90;;;;;;4944240;29;20043;-81
2022/02/10 12:00:43;;;;;;;6.97;4.07;;;11.50;99.90;;;;;;4943845;29;20038;-80
2022/02/10 12:35:40;;;;;;;8.00;5.65;;;9.90;99.90;;;;;;4943980;29;20099;-79
2022/02/10 14:15:10;;;;;;;7.80;5.22;;;8.60;99.90;;;;;;4927889;29;20595;-79
2022/02/10 14:17:45;;;;;;;7.75;6.05;;;8.50;99.90;;;;;;4936143;29;20070;-79
2022/02/10 14:20:32;;;;;;;11.77;7.35;;;8.50;99.90;;;;;;4935807;29;20027;-80
2022/02/10 14:23:06;;;;;;;9.70;4.90;;;8.50;99.90;;;;;;4935339;29;20162;-78
2022/02/10 14:25:46;;;;;;;11.75;6.13;;;8.40;99.90;;;;;;4934392;29;20625;-79
2022/02/10 14:28:11;;;;;;;13.02;6.72;;;8.40;99.90;;;;;;4935486;29;20075;-79
2022/02/10 14:30:38;;;;;;;8.95;6.03;;;8.40;99.90;;;;;;4933793;29;20024;-77
2022/02/10 14:33:04;;;;;;;9.82;7.55;;;8.40;99.90;;;;;;4929938;29;20029;-80
2022/02/10 14:35:39;;;;;;;19.42;8.43;;;8.30;99.90;;;;;;4931965;29;20024;-81
2022/02/10 14:38:17;;;;;;;7.78;5.93;;;8.30;99.90;;;;;;4936308;29;20035;-79
2022/02/10 14:41:08;;;;;;;10.80;6.15;;;8.30;99.90;;;;;;4938691;29;20055;-80
2022/02/10 15:46:06;;;;;;;10.77;8.38;;;8.00;99.90;;;;;;4939143;29;20087;-78
2022/02/10 16:17:54;;;;;;;10.50;6.78;;;7.70;99.90;;;;;;4936122;29;20055;-80
2022/02/10 16:20:22;;;;;;;10.35;6.88;;;7.70;99.90;;;;;;4932801;29;20024;-79
2022/02/10 16:23:15;;;;;;;7.97;6.80;;;7.70;99.90;;;;;;4935035;29;20016;-79
2022/02/10 16:25:48;;;;;;;8.00;7.20;;;7.70;99.90;;;;;;4937349;29;20137;-79
2022/02/10 16:28:35;;;;;;;10.07;6.53;;;7.70;99.90;;;;;;4928913;29;20028;-80
2022/02/10 16:31:00;;;;;;;10.60;6.60;;;7.70;99.90;;;;;;4924694;29;20031;-79
2022/02/10 16:33:29;;;;;;;10.07;6.82;;;7.70;99.90;;;;;;4935971;29;20020;-78
2022/02/10 16:36:18;;;;;;;12.10;6.90;;;7.70;99.90;;;;;;4936887;29;20484;-77
2022/02/10 16:38:45;;;;;;;5.78;5.22;;;7.70;99.90;;;;;;4938315;29;20020;-78
2022/02/10 16:41:13;;;;;;;13.07;6.00;;;7.80;99.90;;;;;;4929313;29;20023;-79
2022/02/10 16:43:40;;;;;;;9.88;4.40;;;7.80;99.90;;;;;;4931106;29;20031;-79
2022/02/10 16:46:08;;;;;;;5.68;3.88;;;7.90;99.90;;;;;;4932794;29;20038;-76
2022/02/10 16:48:34;;;;;;;6.85;3.85;;;8.00;99.90;;;;;;4933677;29;20051;-76
2022/02/10 16:51:01;;;;;;;6.28;3.58;;;8.00;99.90;;;;;;4936431;29;20489;-76
2022/02/10 16:53:28;;;;;;;4.40;3.25;;;8.00;99.90;;;;;;4937655;29;20035;-77
2022/02/10 16:56:00;;;;;;;5.13;3.55;;;8.10;99.90;;;;;;4936608;29;20123;-79
2022/02/10 16:58:33;;;;;;;5.18;3.13;;;8.10;99.90;;;;;;4935501;29;20034;-77
2022/02/10 17:01:19;;;;;;;5.10;3.40;;;8.20;99.90;;;;;;4924576;29;20046;-77
2022/02/10 17:25:12;;;;;;;4.05;3.03;;;8.20;99.90;;;;;;4933504;29;20023;-78
2022/02/10 17:27:44;;;;;;;4.00;2.65;;;8.30;99.90;;;;;;4934746;29;20046;-78
2022/02/10 17:53:54;;;;;;;5.50;3.10;;;8.00;99.90;;;;;;4933538;29;20107;-76
2022/02/10 17:56:20;;;;;;;5.38;3.00;;;8.00;99.90;;;;;;4931774;29;20027;-76
2022/02/10 17:58:46;;;;;;;4.07;2.50;;;8.00;99.90;;;;;;4933978;29;20392;-76
2022/02/10 18:01:12;;;;;;;3.20;2.60;;;8.00;99.90;;;;;;4933644;29;20027;-74
2022/02/10 18:03:38;;;;;;;3.58;2.55;;;8.00;99.90;;;;;;4932275;29;20035;-76
2022/02/10 18:12:11;;;;;;;5.10;3.33;;;8.00;99.90;;;;;;4925492;29;20358;-75
2022/02/10 18:14:56;;;;;;;3.53;3.03;;;8.00;99.90;;;;;;4923277;29;20040;-75
2022/02/10 18:17:19;;;;;;;23.35;16.08;;;8.00;99.90;;;;;;4924506;29;20088;-75
2022/02/10 18:19:52;;;;;;;5.18;3.55;;;8.00;99.90;;;;;;4930489;29;20028;-75
2022/02/10 18:25:44;;;;;;;6.05;2.95;;;8.00;99.90;;;;;;4936370;29;20418;-75
2022/02/10 18:30:16;;;;;;;6.03;3.08;;;7.90;99.90;;;;;;4930871;29;20063;-76
2022/02/10 18:37:42;;;;;;;4.15;3.38;;;7.90;99.90;;;;;;4936187;29;20511;-77
2022/02/10 19:05:44;;;;;;;4.13;3.45;;;7.70;99.90;;;;;;4936310;29;20036;-75
2022/02/10 19:08:21;;;;;;;4.38;2.47;;;7.70;99.90;;;;;;4926296;29;20025;-76
2022/02/10 19:10:53;;;;;;;6.35;3.25;;;7.70;99.90;;;;;;4929043;29;20039;-76
2022/02/10 19:13:21;;;;;;;7.30;3.15;;;7.60;99.90;;;;;;4935015;29;20039;-77
2022/02/10 19:15:46;;;;;;;4.90;2.60;;;7.60;99.90;;;;;;4938083;29;20108;-77
2022/02/10 19:18:12;;;;;;;4.45;2.80;;;7.50;99.90;;;;;;4937235;29;20048;-77
2022/02/10 19:20:39;;;;;;;3.65;2.72;;;7.50;99.90;;;;;;4937312;28;20046;-75
2022/02/10 19:23:06;;;;;;;4.00;3.22;;;7.40;99.90;;;;;;4937316;29;20091;-76
2022/02/10 19:25:36;;;;;;;7.55;3.78;;;7.40;99.90;;;;;;4932101;29;20405;-74
2022/02/10 19:28:02;;;;;;;3.63;3.00;;;7.40;99.90;;;;;;4932848;29;20048;-78
2022/02/10 19:30:29;;;;;;;3.65;2.65;;;7.40;99.90;;;;;;4928059;29;20068;-75
2022/02/10 19:33:01;;;;;;;4.78;3.00;;;7.40;99.90;;;;;;4934752;29;20145;-75
2022/02/10 19:35:30;;;;;;;5.05;3.67;;;7.30;99.90;;;;;;4937389;29;20051;-77
2022/02/10 19:38:00;;;;;;;5.28;3.10;;;7.30;99.90;;;;;;4934718;29;20123;-77
2022/02/10 19:40:29;;;;;;;5.22;3.25;;;7.30;99.90;;;;;;4933600;29;20166;-75
2022/02/10 19:42:56;;;;;;;4.65;2.85;;;7.20;99.90;;;;;;4937069;29;20099;-77
2022/02/10 19:45:24;;;;;;;4.28;2.88;;;7.20;99.90;;;;;;4935860;29;20052;-77
2022/02/10 19:47:50;;;;;;;4.70;3.20;;;7.20;99.90;;;;;;4934977;29;20543;-76
2022/02/10 19:50:24;;;;;;;4.28;2.72;;;7.20;99.90;;;;;;4935022;29;20496;-76
2022/02/10 19:52:51;;;;;;;5.28;3.95;;;7.20;99.90;;;;;;4923057;29;20028;-77
2022/02/10 19:55:23;;;;;;;3.80;3.30;;;7.30;99.90;;;;;;4925513;29;20626;-76
2022/02/10 19:57:51;;;;;;;3.15;2.85;;;7.30;99.90;;;;;;4924968;29;20488;-78
2022/02/10 20:00:20;;;;;;;4.60;3.17;;;7.30;99.90;;;;;;4932224;29;20023;-76
2022/02/10 20:02:47;;;;;;;4.50;3.08;;;7.30;99.90;;;;;;4934386;28;20048;-76
2022/02/10 20:05:12;;;;;;;5.50;3.15;;;7.30;99.90;;;;;;4936350;29;20028;-75
2022/02/10 20:07:40;;;;;;;5.45;3.63;;;7.30;99.90;;;;;;4935459;29;20039;-77
2022/02/10 20:10:07;;;;;;;5.13;3.22;;;7.20;99.90;;;;;;4927875;29;20031;-76
2022/02/10 20:12:33;;;;;;;5.30;3.70;;;7.20;99.90;;;;;;4928817;29;20078;-77
2022/02/10 20:14:59;;;;;;;4.38;3.67;;;7.10;99.90;;;;;;4939575;29;20024;-76
2022/02/10 20:17:24;;;;;;;4.25;3.60;;;7.10;99.90;;;;;;4941776;29;20040;-79
2022/02/10 20:19:50;;;;;;;4.47;3.97;;;7.00;99.90;;;;;;4942075;28;20046;-76
2022/02/10 20:22:16;;;;;;;4.53;3.45;;;7.00;99.90;;;;;;4936318;29;20036;-77
2022/02/10 20:24:42;;;;;;;5.40;3.63;;;6.90;99.90;;;;;;4927072;29;20039;-75
2022/02/10 20:27:08;;;;;;;4.85;3.83;;;6.90;99.90;;;;;;4939423;29;20047;-75
2022/02/10 20:29:34;;;;;;;6.00;3.95;;;7.00;99.90;;;;;;4931955;29;20032;-77
2022/02/10 20:32:00;;;;;;;9.48;3.80;;;7.00;99.90;;;;;;4935009;29;20481;-75
2022/02/10 20:34:27;;;;;;;5.90;3.90;;;7.00;99.90;;;;;;4939177;29;20032;-76
2022/02/10 20:36:55;;;;;;;7.70;4.05;;;7.10;99.90;;;;;;4936613;29;20031;-76
2022/02/10 20:39:25;;;;;;;5.47;3.90;;;7.10;99.90;;;;;;4933930;29;20480;-75
2022/02/10 20:41:54;;;;;;;5.57;3.90;;;7.10;99.90;;;;;;4932764;29;20485;-76
2022/02/10 20:44:20;;;;;;;7.60;3.90;;;7.20;99.90;;;;;;4932626;29;20052;-77
2022/02/10 20:46:50;;;;;;;6.30;4.38;;;7.20;99.90;;;;;;4930939;29;20055;-74
2022/02/10 20:49:17;;;;;;;8.68;4.00;;;7.20;99.90;;;;;;4934521;29;20677;-76
2022/02/10 20:51:49;;;;;;;3.90;3.42;;;7.20;99.90;;;;;;4937640;29;20091;-75
2022/02/10 20:54:15;;;;;;;5.30;4.05;;;7.40;99.90;;;;;;4944427;29;20039;-76
2022/02/10 20:56:41;;;;;;;4.55;3.97;;;7.60;99.90;;;;;;4946053;29;20051;-76
2022/02/10 20:59:19;;;;;;;5.95;4.63;;;7.50;99.90;;;;;;4947989;29;20036;-76
2022/02/10 21:01:50;;;;;;;4.68;3.65;;;7.40;99.90;;;;;;4940872;29;20031;-75
2022/02/10 21:04:16;;;;;;;6.05;4.40;;;7.50;99.90;;;;;;4945431;29;20019;-75
2022/02/10 21:09:14;;;;;;;5.20;3.20;;;7.50;99.90;;;;;;4934585;29;20094;-75
2022/02/10 21:11:41;;;;;;;5.57;3.97;;;7.40;99.90;;;;;;4933320;29;20032;-75
2022/02/10 21:14:13;;;;;;;4.60;4.03;;;7.40;99.90;;;;;;4933924;29;20035;-75
2022/02/10 21:16:41;;;;;;;4.40;3.95;;;7.40;99.90;;;;;;4932294;29;20019;-76
2022/02/10 21:19:07;;;;;;;8.40;4.72;;;7.40;99.90;;;;;;4932026;29;20373;-75
2022/02/10 21:21:32;;;;;;;6.53;4.45;;;7.50;99.90;;;;;;4933196;29;20023;-75
2022/02/10 21:24:07;;;;;;;4.82;4.05;;;7.50;99.90;;;;;;4930221;29;20067;-76
2022/02/10 21:26:41;;;;;;;4.95;4.05;;;7.40;99.90;;;;;;4934018;29;20027;-78
2022/02/10 21:29:07;;;;;;;13.68;4.72;;;7.50;99.90;;;;;;4933009;28;20034;-76
2022/02/10 21:31:42;;;;;;;4.93;4.40;;;7.40;99.90;;;;;;4934527;29;20389;-76
2022/02/10 21:34:18;;;;;;;4.32;3.90;;;7.40;99.90;;;;;;4927170;29;20059;-79
2022/02/10 21:43:46;;;;;;;7.47;4.85;;;7.40;99.90;;;;;;4915008;29;20524;-78
2022/02/10 21:46:37;;;;;;;5.95;4.63;;;7.40;99.90;;;;;;4926068;29;20031;-76
2022/02/10 21:48:21;;;;;;;6.78;5.20;;;7.40;99.90;;;;;;4924014;29;20063;-79
2022/02/10 21:54:34;;;;;;;9.57;5.32;;;7.40;99.90;;;;;;4929204;29;20035;-79
2022/02/10 22:02:44;;;;;;;9.50;5.60;;;7.40;99.90;;;;;;4938386;29;20090;-78
2022/02/10 22:20:22;;;;;;;5.57;4.07;;;7.50;99.90;;;;;;4943992;28;20039;-78
2022/02/10 22:23:01;;;;;;;4.63;4.00;;;7.50;99.90;;;;;;4937326;29;20024;-78
2022/02/10 22:25:26;;;;;;;5.13;3.72;;;7.50;99.90;;;;;;4946790;29;20040;-78
2022/02/10 22:27:54;;;;;;;4.50;3.95;;;7.50;99.90;;;;;;4940216;29;20355;-82
2022/02/10 22:30:30;;;;;;;9.13;4.55;;;7.50;99.90;;;;;;4944477;29;20028;-84
2022/02/10 22:33:13;;;;;;;10.43;5.10;;;7.50;99.90;;;;;;4936426;29;20035;-77
2022/02/10 22:35:39;;;;;;;5.90;4.25;;;7.50;99.90;;;;;;4935064;29;20031;-84
2022/02/10 22:38:04;;;;;;;7.75;4.60;;;7.50;99.90;;;;;;4944238;29;20038;-83
2022/02/10 22:40:53;;;;;;;7.05;5.28;;;7.40;99.90;;;;;;4942599;29;20063;-79
2022/02/10 22:43:18;;;;;;;7.53;4.57;;;7.40;99.90;;;;;;4941933;29;20083;-81
2022/02/10 22:45:44;;;;;;;6.32;4.70;;;7.40;99.90;;;;;;4947792;29;23000;-82
2022/02/10 22:48:09;;;;;;;6.80;5.18;;;7.40;99.90;;;;;;4940690;29;20044;-77
2022/02/10 22:50:35;;;;;;;7.88;6.03;;;7.40;99.90;;;;;;4937383;29;20024;-77
2022/02/10 22:53:00;;;;;;;7.65;6.10;;;7.50;99.90;;;;;;4936018;29;20058;-78
2022/02/10 22:55:26;;;;;;;6.45;4.95;;;7.40;99.90;;;;;;4936144;29;20034;-76
2022/02/10 22:57:51;;;;;;;5.43;4.60;;;7.50;99.90;;;;;;4930172;29;20074;-78
2022/02/10 23:00:29;;;;;;;8.88;4.47;;;7.50;99.90;;;;;;4936242;29;20031;-75
2022/02/10 23:02:54;;;;;;;7.43;4.50;;;7.50;99.90;;;;;;4924736;29;20516;-78
2022/02/10 23:05:21;;;;;;;4.72;3.67;;;7.40;99.90;;;;;;4928730;29;20024;-77
2022/02/10 23:07:49;;;;;;;4.78;3.63;;;7.40;99.90;;;;;;4931031;29;20055;-77
2022/02/10 23:12:43;;;;;;;7.25;3.63;;;7.40;99.90;;;;;;4944750;28;20040;-78
2022/02/10 23:15:08;;;;;;;6.57;4.50;;;7.40;99.90;;;;;;4937647;29;20083;-76
2022/02/10 23:17:36;;;;;;;7.82;5.13;;;7.40;99.90;;;;;;4934956;29;20031;-79
2022/02/10 23:20:03;;;;;;;8.40;4.20;;;7.40;99.90;;;;;;4927027;29;20079;-77
2022/02/10 23:22:28;;;;;;;7.13;4.38;;;7.40;99.90;;;;;;4926413;29;20100;-77
2022/02/10 23:24:55;;;;;;;6.97;4.10;;;7.40;99.90;;;;;;4925130;29;20635;-77
2022/02/10 23:27:20;;;;;;;8.27;3.92;;;7.40;99.90;;;;;;4934334;29;20024;-77
2022/02/10 23:29:46;;;;;;;7.88;4.65;;;7.40;99.90;;;;;;4933030;29;20072;-77
2022/02/10 23:32:12;;;;;;;5.65;4.00;;;7.50;99.90;;;;;;4926347;29;20023;-76
2022/02/10 23:34:38;;;;;;;12.93;4.60;;;7.60;99.90;;;;;;4929473;29;20036;-81
2022/02/10 23:37:03;;;;;;;6.50;4.32;;;7.60;99.90;;;;;;4931665;29;20122;-78
2022/02/10 23:39:33;;;;;;;6.00;3.60;;;7.40;99.90;;;;;;4936469;29;20023;-77
2022/02/10 23:44:28;;;;;;;8.35;4.90;;;7.40;99.90;;;;;;4937337;29;20503;-78
2022/02/10 23:46:56;;;;;;;5.78;4.30;;;7.40;99.90;;;;;;4936052;29;20389;-78
2022/02/10 23:49:25;;;;;;;5.60;4.43;;;7.30;99.90;;;;;;4932452;29;20138;-77
2022/02/10 23:51:57;;;;;;;5.93;4.18;;;7.30;99.90;;;;;;4936743;29;20527;-79
2022/02/10 23:54:25;;;;;;;6.60;4.60;;;7.20;99.90;;;;;;4933809;29;20031;-78
2022/02/10 23:57:01;;;;;;;4.38;3.92;;;7.20;99.90;;;;;;4935291;29;20117;-80
2022/02/10 23:59:41;;;;;;;7.60;4.20;;;7.20;99.90;;;;;;4934246;29;20048;-78
